Time;durP1;ratioP1;P1;durP2;ratioP2;P2;SDS_P1;SDS_P2;PMS_P1;PMS_P2;Temp;Humidity;BMP_temperature;BMP_pressure;BME280_temperature;BME280_humidity;BME280_pressure;Samples;Min_cycle;Max_cycle;Signal;HPM_P1;HPM_P2
2021/07/20 05:53:38;;;;;;;16.55;8.18;;;17.50;99.90;;;;;;5005635;28;20484;-96
2021/07/20 05:56:04;;;;;;;13.73;8.05;;;17.50;99.90;;;;;;4983845;28;20037;-96
2021/07/20 06:44:05;;;;;;;10.80;7.15;;;18.80;99.90;;;;;;5131653;23;20051;-96
2021/07/20 06:46:32;;;;;;;10.05;6.75;;;18.90;99.90;;;;;;4947586;28;20473;-96
2021/07/20 06:48:59;;;;;;;13.43;7.18;;;18.90;99.90;;;;;;4979299;28;20058;-96
2021/07/20 06:51:29;;;;;;;10.07;6.68;;;18.90;99.90;;;;;;4963509;28;20023;-96
2021/07/20 06:53:55;;;;;;;11.95;6.90;;;19.00;99.90;;;;;;4980606;28;20065;-96
2021/07/20 06:56:26;;;;;;;14.18;7.90;;;19.00;99.90;;;;;;4976555;28;20058;-96
2021/07/20 06:58:54;;;;;;;10.75;7.18;;;19.10;99.90;;;;;;4964636;28;20038;-96
2021/07/20 07:01:22;;;;;;;13.52;7.32;;;19.20;99.90;;;;;;4988682;28;20034;-96
2021/07/20 07:04:24;;;;;;;12.50;7.28;;;19.30;99.90;;;;;;4976787;28;20511;-96
2021/07/20 07:06:52;;;;;;;21.67;7.93;;;19.30;99.90;;;;;;4969216;28;20033;-96
2021/07/20 07:09:21;;;;;;;12.73;7.85;;;19.40;99.90;;;;;;4967724;28;20035;-96
2021/07/20 07:11:49;;;;;;;12.95;6.65;;;19.50;99.90;;;;;;4967496;28;20037;-96
2021/07/20 07:14:16;;;;;;;13.27;7.75;;;19.60;99.90;;;;;;4981238;28;20022;-96
2021/07/20 07:16:45;;;;;;;12.45;6.85;;;19.70;99.90;;;;;;4981857;28;20050;-96
2021/07/20 07:19:14;;;;;;;11.13;6.45;;;19.80;99.90;;;;;;4966764;28;20030;-96
2021/07/20 07:21:42;;;;;;;11.02;6.47;;;19.90;99.90;;;;;;4961905;28;20015;-96
2021/07/20 07:24:11;;;;;;;14.43;7.03;;;20.00;99.90;;;;;;4982453;28;20031;-96
2021/07/20 07:26:38;;;;;;;14.82;6.78;;;20.10;99.90;;;;;;4963005;28;20053;-96
2021/07/20 07:29:09;;;;;;;11.38;6.65;;;20.20;99.90;;;;;;4978396;28;20049;-94
2021/07/20 07:31:36;;;;;;;15.75;7.28;;;20.30;99.90;;;;;;4959349;28;20025;-96
2021/07/20 07:34:02;;;;;;;11.38;6.47;;;20.50;99.90;;;;;;4980229;28;20111;-96
2021/07/20 07:36:29;;;;;;;15.27;6.80;;;20.60;99.90;;;;;;4961169;28;20050;-96
2021/07/20 07:38:55;;;;;;;11.35;6.55;;;20.70;99.90;;;;;;4972976;28;20047;-95
2021/07/20 07:41:23;;;;;;;11.77;7.00;;;20.80;99.90;;;;;;4962903;28;20070;-96
2021/07/20 07:43:51;;;;;;;9.98;6.70;;;20.90;99.90;;;;;;4962705;28;20053;-96
2021/07/20 07:46:18;;;;;;;12.52;6.35;;;21.00;99.90;;;;;;4976177;28;20027;-96
2021/07/20 07:48:45;;;;;;;12.23;6.25;;;21.10;99.90;;;;;;4980240;28;20027;-95
2021/07/20 07:51:11;;;;;;;13.32;7.03;;;21.20;99.90;;;;;;4986290;28;20023;-95
2021/07/20 07:53:40;;;;;;;11.65;6.30;;;21.40;99.90;;;;;;4983762;28;20046;-96
2021/07/20 07:56:06;;;;;;;10.95;6.03;;;21.50;99.90;;;;;;4983621;28;20011;-95
2021/07/20 07:58:34;;;;;;;12.65;6.20;;;21.60;99.90;;;;;;4973827;28;20449;-95
2021/07/20 08:01:05;;;;;;;15.20;6.25;;;21.70;99.90;;;;;;4990619;28;20031;-95
2021/07/20 08:03:32;;;;;;;13.50;5.78;;;21.90;99.90;;;;;;4954642;28;20122;-96
2021/07/20 08:06:00;;;;;;;17.15;5.65;;;22.00;99.90;;;;;;4967428;28;20034;-94
2021/07/20 08:08:27;;;;;;;10.73;5.65;;;22.10;99.90;;;;;;4966708;28;20070;-94
2021/07/20 08:10:53;;;;;;;10.15;6.32;;;22.30;99.90;;;;;;4962421;28;20061;-95
2021/07/20 08:13:20;;;;;;;8.93;5.93;;;22.50;99.90;;;;;;4961392;28;20031;-95
2021/07/20 08:15:51;;;;;;;10.30;5.13;;;22.60;99.90;;;;;;4960913;28;20046;-95
2021/07/20 08:18:21;;;;;;;9.25;5.18;;;22.80;99.90;;;;;;4961191;28;20035;-95
2021/07/20 08:20:47;;;;;;;8.73;5.55;;;23.00;99.90;;;;;;4960202;28;20035;-96
2021/07/20 08:23:13;;;;;;;16.50;5.78;;;23.10;99.90;;;;;;4960678;28;20027;-96
2021/07/20 08:25:52;;;;;;;12.68;5.38;;;23.30;99.90;;;;;;4959535;28;20125;-95
2021/07/20 08:28:32;;;;;;;13.10;5.07;;;23.40;99.90;;;;;;4960629;28;20469;-94
2021/07/20 08:31:02;;;;;;;10.63;5.85;;;23.50;99.90;;;;;;4960332;28;20027;-95
2021/07/20 08:33:32;;;;;;;9.05;5.97;;;23.50;99.90;;;;;;4959652;28;20038;-95
2021/07/20 08:36:01;;;;;;;10.45;5.18;;;23.50;99.90;;;;;;4960421;28;20022;-95
2021/07/20 08:38:29;;;;;;;10.60;5.50;;;23.50;99.90;;;;;;4960195;28;20042;-95
2021/07/20 08:40:58;;;;;;;7.60;5.05;;;23.50;99.90;;;;;;4959920;28;20484;-95
2021/07/20 08:43:58;;;;;;;12.20;5.38;;;23.60;99.90;;;;;;4961082;28;20050;-94
2021/07/20 08:46:37;;;;;;;12.70;5.57;;;23.60;99.90;;;;;;4864810;29;20033;-95
2021/07/20 08:49:15;;;;;;;10.25;5.55;;;23.60;99.90;;;;;;4864334;29;20040;-94
2021/07/20 08:52:03;;;;;;;10.02;5.15;;;23.80;99.90;;;;;;4865870;29;20025;-94
2021/07/20 08:54:38;;;;;;;6.15;4.70;;;24.00;99.90;;;;;;4866317;29;20041;-94
2021/07/20 08:57:08;;;;;;;9.85;4.38;;;24.20;99.90;;;;;;4867521;29;20041;-94
2021/07/20 09:00:05;;;;;;;9.03;4.20;;;24.40;99.90;;;;;;4866569;29;20037;-95
2021/07/20 09:02:40;;;;;;;7.95;3.92;;;24.70;99.90;;;;;;4862496;29;20096;-95
2021/07/20 09:05:13;;;;;;;5.28;3.97;;;24.90;99.60;;;;;;4873745;29;20141;-95
2021/07/20 09:07:53;;;;;;;9.55;4.05;;;25.10;98.10;;;;;;4874485;29;20096;-94
2021/07/20 09:10:21;;;;;;;8.07;3.60;;;25.40;96.10;;;;;;4867603;29;20411;-95
2021/07/20 09:12:50;;;;;;;8.35;3.47;;;25.60;95.00;;;;;;4866588;29;20033;-96
2021/07/20 09:15:20;;;;;;;6.25;3.45;;;25.80;93.10;;;;;;4866215;29;20061;-93
2021/07/20 09:17:53;;;;;;;;;;;26.10;91.90;;;;;;4866116;29;20060;-95
2021/07/20 09:20:27;;;;;;;5.38;3.28;;;26.30;91.10;;;;;;4865201;29;19955;-94
2021/07/20 09:23:01;;;;;;;8.10;3.65;;;26.50;90.50;;;;;;4920222;28;20117;-95
2021/07/20 09:25:51;;;;;;;7.97;3.63;;;26.70;89.10;;;;;;4960838;28;20143;-96
2021/07/20 09:28:37;;;;;;;7.13;3.75;;;27.00;87.10;;;;;;4963085;28;20030;-96
2021/07/20 09:31:22;;;;;;;7.88;3.15;;;27.30;85.40;;;;;;4973562;28;20026;-95
2021/07/20 09:34:06;;;;;;;9.35;3.70;;;27.50;84.20;;;;;;4981100;28;20027;-95
2021/07/20 09:36:41;;;;;;;9.98;4.30;;;27.70;82.70;;;;;;4980969;28;20065;-95
2021/07/20 09:39:25;;;;;;;6.10;3.70;;;27.90;81.30;;;;;;4981907;28;20039;-95
2021/07/20 09:41:58;;;;;;;7.03;3.42;;;28.00;79.00;;;;;;4978328;28;20035;-95
2021/07/20 09:44:43;;;;;;;6.28;3.05;;;28.20;77.90;;;;;;4973349;28;20063;-96
2021/07/20 09:47:25;;;;;;;4.28;3.38;;;28.10;76.30;;;;;;4958680;29;20040;-96
2021/07/20 09:50:15;;;;;;;5.22;3.28;;;28.20;76.00;;;;;;4958982;29;20024;-95
2021/07/20 09:53:16;;;;;;;7.85;4.20;;;28.00;75.30;;;;;;4958453;29;20031;-94
2021/07/20 09:56:13;;;;;;;5.93;3.65;;;28.10;75.10;;;;;;4958238;29;20118;-95
2021/07/20 09:58:53;;;;;;;4.93;3.45;;;28.20;74.30;;;;;;4960897;29;20047;-96
2021/07/20 10:01:22;;;;;;;7.30;3.38;;;28.30;73.30;;;;;;4961015;29;20023;-96
2021/07/20 10:03:50;;;;;;;8.07;3.60;;;28.50;72.70;;;;;;4959679;29;20453;-96
2021/07/20 10:07:02;;;;;;;6.13;3.60;;;28.70;73.00;;;;;;4959957;29;20024;-96
2021/07/20 10:09:40;;;;;;;5.90;3.90;;;28.90;71.80;;;;;;4961742;29;20549;-96
2021/07/20 10:12:35;;;;;;;9.38;3.50;;;29.10;70.50;;;;;;4961239;29;20027;-95
2021/07/20 10:15:09;;;;;;;4.82;3.40;;;29.10;69.80;;;;;;4963481;29;20031;-96
2021/07/20 10:17:47;;;;;;;6.95;4.63;;;29.10;69.50;;;;;;4962065;29;20449;-94
2021/07/20 10:20:20;;;;;;;10.00;3.97;;;29.00;69.20;;;;;;4956004;29;20039;-95
2021/07/20 10:22:52;;;;;;;7.22;3.70;;;29.00;69.10;;;;;;4955884;29;20454;-93
2021/07/20 10:25:32;;;;;;;7.53;3.90;;;29.00;69.30;;;;;;4957703;29;20482;-95
2021/07/20 10:28:14;;;;;;;5.50;3.60;;;29.10;68.80;;;;;;4957480;29;20114;-94
2021/07/20 10:30:45;;;;;;;4.82;3.72;;;29.20;68.60;;;;;;4958378;29;20568;-94
2021/07/20 10:33:23;;;;;;;7.05;3.78;;;29.30;68.10;;;;;;4957423;29;20027;-95
2021/07/20 10:36:03;;;;;;;4.63;3.45;;;29.50;67.50;;;;;;4956134;29;20062;-94
2021/07/20 10:38:41;;;;;;;7.90;4.07;;;29.80;66.70;;;;;;4955358;29;20035;-95
2021/07/20 10:41:10;;;;;;;9.40;3.88;;;30.10;65.90;;;;;;4955751;29;20126;-94
2021/07/20 10:44:07;;;;;;;5.70;3.55;;;30.20;65.30;;;;;;4958370;29;20053;-95
2021/07/20 10:46:35;;;;;;;6.18;3.47;;;30.30;64.90;;;;;;4955120;29;20083;-96
2021/07/20 10:49:21;;;;;;;11.95;4.10;;;30.40;64.60;;;;;;4955812;28;20047;-94
2021/07/20 10:51:50;;;;;;;8.52;3.55;;;30.60;63.70;;;;;;4962538;29;20093;-95
2021/07/20 10:54:22;;;;;;;6.22;3.30;;;30.80;63.20;;;;;;4965350;29;20046;-95
2021/07/20 10:56:57;;;;;;;7.93;3.53;;;30.90;62.60;;;;;;4966086;29;20035;-96
2021/07/20 10:59:51;;;;;;;5.35;3.78;;;31.00;62.10;;;;;;4967191;29;20040;-96
2021/07/20 11:02:30;;;;;;;8.13;3.70;;;31.20;61.30;;;;;;4970868;29;20031;-96
2021/07/20 11:05:03;;;;;;;5.95;3.55;;;31.40;60.70;;;;;;4966965;29;20086;-95
2021/07/20 11:07:37;;;;;;;9.23;3.88;;;31.40;59.80;;;;;;4961610;29;20036;-95
2021/07/20 11:10:40;;;;;;;6.10;3.63;;;31.40;59.90;;;;;;4961771;29;20023;-95
2021/07/20 11:13:10;;;;;;;5.50;3.33;;;31.50;59.50;;;;;;4960393;29;20043;-96
2021/07/20 11:15:38;;;;;;;7.13;3.15;;;31.50;58.70;;;;;;4963262;28;20008;-96
2021/07/20 11:18:10;;;;;;;4.80;3.65;;;31.60;58.40;;;;;;4964755;29;20043;-95
2021/07/20 11:20:36;;;;;;;4.57;3.60;;;31.80;58.70;;;;;;4965453;29;20023;-95
2021/07/20 11:23:04;;;;;;;10.18;4.18;;;31.70;58.00;;;;;;4962966;29;20061;-94
2021/07/20 11:25:32;;;;;;;7.95;3.65;;;31.60;58.40;;;;;;4965034;29;20034;-96
2021/07/20 11:27:59;;;;;;;9.20;3.97;;;31.40;58.60;;;;;;4963587;29;20079;-95
2021/07/20 11:30:29;;;;;;;6.00;3.83;;;31.30;58.60;;;;;;4961527;29;20038;-95
2021/07/20 11:33:02;;;;;;;7.15;3.97;;;31.40;58.90;;;;;;4962471;29;20023;-96
2021/07/20 11:35:34;;;;;;;8.95;3.85;;;31.60;59.00;;;;;;4963142;29;20079;-96
2021/07/20 11:38:22;;;;;;;7.68;4.28;;;31.90;59.00;;;;;;4964205;29;20023;-95
2021/07/20 11:41:02;;;;;;;8.52;4.07;;;32.20;58.70;;;;;;4952539;29;20036;-95
2021/07/20 11:43:37;;;;;;;5.95;3.70;;;32.30;57.50;;;;;;4970717;28;20047;-96
2021/07/20 11:46:08;;;;;;;6.75;4.20;;;32.10;57.10;;;;;;4979747;29;20015;-95
2021/07/20 11:54:16;;;;;;;9.57;3.90;;;32.20;56.80;;;;;;4971141;29;20074;-95
2021/07/20 11:57:20;;;;;;;5.55;3.60;;;32.00;56.60;;;;;;4957110;29;20039;-95
2021/07/20 12:03:05;;;;;;;9.00;4.55;;;32.10;56.80;;;;;;5133380;23;20066;-95
2021/07/20 12:05:55;;;;;;;7.82;3.75;;;32.20;56.10;;;;;;4973200;28;20037;-94
2021/07/20 12:09:01;;;;;;;10.68;4.45;;;32.30;55.60;;;;;;4992102;28;20031;-95
2021/07/20 12:11:30;;;;;;;6.78;4.07;;;32.60;55.60;;;;;;4973744;28;20039;-96
2021/07/20 12:14:05;;;;;;;9.70;4.25;;;32.90;55.60;;;;;;4974916;28;20039;-95
2021/07/20 12:16:31;;;;;;;8.45;4.35;;;33.10;55.00;;;;;;4973542;28;20027;-94
2021/07/20 12:21:34;;;;;;;8.73;3.78;;;33.50;53.80;;;;;;5045886;23;20055;-96
2021/07/20 12:24:05;;;;;;;9.88;4.38;;;33.40;53.80;;;;;;4980176;28;20019;-96
2021/07/20 12:26:32;;;;;;;6.28;3.80;;;33.50;53.50;;;;;;4980058;28;20030;-96
2021/07/20 12:28:58;;;;;;;6.35;4.13;;;33.50;53.50;;;;;;4996077;28;20035;-96
2021/07/20 12:31:31;;;;;;;7.60;4.53;;;33.60;53.50;;;;;;4982819;28;20026;-96
2021/07/20 12:34:03;;;;;;;7.53;4.53;;;33.60;53.20;;;;;;5078158;23;20095;-96
2021/07/20 12:36:31;;;;;;;7.38;4.07;;;33.70;53.30;;;;;;4956920;29;20039;-96
2021/07/20 12:39:17;;;;;;;8.48;4.00;;;33.80;53.20;;;;;;4974993;29;20032;-96
2021/07/20 12:41:55;;;;;;;8.18;3.80;;;34.00;53.00;;;;;;4971051;29;20042;-96
2021/07/20 12:44:24;;;;;;;6.85;3.75;;;34.10;52.80;;;;;;4957675;29;20039;-96
2021/07/20 12:46:51;;;;;;;6.03;3.95;;;34.00;52.40;;;;;;4952711;29;20038;-95
2021/07/20 12:49:17;;;;;;;7.88;4.03;;;34.00;52.30;;;;;;4965451;29;20023;-94
2021/07/20 12:51:50;;;;;;;6.32;4.07;;;34.10;52.20;;;;;;4947526;29;20028;-94
2021/07/20 12:54:31;;;;;;;5.75;4.18;;;34.30;51.90;;;;;;4950406;29;20073;-95
2021/07/20 12:56:57;;;;;;;5.22;3.80;;;34.40;51.10;;;;;;4954789;29;20015;-96
2021/07/20 12:59:23;;;;;;;8.30;4.10;;;34.30;51.10;;;;;;4950730;29;20035;-96
2021/07/20 13:02:12;;;;;;;5.40;3.75;;;34.30;51.10;;;;;;4941562;28;20016;-96
2021/07/20 13:04:42;;;;;;;9.07;3.90;;;34.40;50.80;;;;;;4975073;28;20098;-96
2021/07/20 13:07:10;;;;;;;7.13;3.78;;;34.20;50.70;;;;;;4958785;28;20032;-96
2021/07/20 13:12:24;;;;;;;8.95;4.07;;;33.80;51.30;;;;;;5008148;28;19929;-95
2021/07/20 13:14:53;;;;;;;7.13;3.83;;;33.60;51.00;;;;;;4991676;28;20057;-96
2021/07/20 13:17:21;;;;;;;8.40;3.85;;;33.50;51.10;;;;;;4990706;28;20102;-95
2021/07/20 13:19:47;;;;;;;6.47;3.95;;;33.50;51.40;;;;;;4987550;28;20068;-96
2021/07/20 13:22:24;;;;;;;5.30;3.58;;;33.50;51.40;;;;;;5082957;23;21299;-94
2021/07/20 13:24:51;;;;;;;5.57;3.72;;;33.70;51.10;;;;;;5024292;23;20051;-95
2021/07/20 13:27:20;;;;;;;7.30;3.67;;;33.80;50.70;;;;;;4980482;28;20214;-95
2021/07/20 13:29:47;;;;;;;8.97;4.13;;;33.90;51.00;;;;;;4981341;28;20030;-95
2021/07/20 13:32:13;;;;;;;4.93;3.47;;;34.10;51.00;;;;;;4980085;28;20023;-95
2021/07/20 13:34:38;;;;;;;4.82;3.72;;;34.30;50.50;;;;;;4981127;28;20029;-95
2021/07/20 13:37:05;;;;;;;6.45;3.40;;;34.40;50.20;;;;;;4967133;28;20078;-95
2021/07/20 13:39:31;;;;;;;7.43;3.85;;;34.60;49.40;;;;;;4963029;28;20034;-95
2021/07/20 13:41:58;;;;;;;10.60;3.90;;;34.60;48.80;;;;;;4963596;28;20076;-96
2021/07/20 13:44:24;;;;;;;13.65;4.22;;;34.70;49.00;;;;;;4963355;28;20037;-96
2021/07/20 13:46:52;;;;;;;9.18;4.18;;;34.70;48.40;;;;;;4963564;28;20031;-96
2021/07/20 13:49:26;;;;;;;6.90;3.70;;;34.50;48.90;;;;;;4972664;28;20027;-96
2021/07/20 13:51:56;;;;;;;6.35;3.70;;;34.50;49.30;;;;;;4988286;28;20097;-96
2021/07/20 13:54:25;;;;;;;4.85;3.60;;;34.60;49.10;;;;;;4965662;28;20035;-96
2021/07/20 13:56:53;;;;;;;6.53;3.92;;;34.60;49.00;;;;;;4966810;28;20035;-96
2021/07/20 13:59:29;;;;;;;7.40;3.83;;;34.70;49.10;;;;;;4963678;28;20035;-95
2021/07/20 14:01:55;;;;;;;7.82;3.50;;;34.80;48.60;;;;;;4963952;28;20030;-95
2021/07/20 14:04:22;;;;;;;6.82;3.97;;;34.80;48.50;;;;;;4963770;28;20408;-94
2021/07/20 14:06:51;;;;;;;6.55;3.28;;;34.60;47.60;;;;;;4961741;28;20050;-96
2021/07/20 14:09:16;;;;;;;6.25;3.60;;;34.50;47.60;;;;;;4959688;28;20023;-94
2021/07/20 14:11:45;;;;;;;8.43;3.42;;;34.60;48.00;;;;;;4962744;28;20027;-96
2021/07/20 15:13:36;;;;;;;4.50;3.25;;;34.60;45.90;;;;;;5004735;23;20059;-96
2021/07/20 15:16:07;;;;;;;8.40;3.17;;;34.70;45.90;;;;;;5037510;23;20116;-96
2021/07/20 16:05:04;;;;;;;6.85;2.70;;;34.60;45.00;;;;;;5229238;23;20382;-96
2021/07/20 16:07:35;;;;;;;5.55;2.85;;;34.30;44.80;;;;;;4953956;29;20184;-96
2021/07/20 16:10:08;;;;;;;4.20;3.10;;;34.20;44.90;;;;;;4973728;29;20016;-96
2021/07/20 16:12:42;;;;;;;7.03;2.83;;;34.20;45.90;;;;;;5269842;23;20062;-96
2021/07/20 16:17:48;;;;;;;6.93;3.10;;;34.30;45.90;;;;;;5270671;23;20070;-96
2021/07/20 16:20:25;;;;;;;5.45;3.10;;;34.30;45.60;;;;;;4977848;28;20054;-96
2021/07/20 16:22:54;;;;;;;5.75;2.60;;;34.30;45.50;;;;;;4980437;28;20019;-96
2021/07/20 16:28:24;;;;;;;8.77;3.00;;;34.00;45.50;;;;;;5013188;28;20051;-96
2021/07/20 16:30:54;;;;;;;6.20;2.80;;;33.70;45.40;;;;;;5009272;23;20063;-96
2021/07/20 16:33:20;;;;;;;6.43;2.50;;;33.50;45.70;;;;;;4973222;28;20130;-96
2021/07/20 16:35:47;;;;;;;4.43;2.60;;;33.30;45.80;;;;;;4972180;28;20015;-96
2021/07/20 16:38:22;;;;;;;6.00;2.85;;;33.30;46.20;;;;;;4961396;29;20036;-96
2021/07/20 16:52:15;;;;;;;10.38;3.20;;;32.90;46.20;;;;;;4992662;28;20039;-95
2021/07/20 16:54:42;;;;;;;7.40;2.85;;;32.70;46.90;;;;;;4996239;28;20035;-96
2021/07/20 16:57:17;;;;;;;8.10;2.90;;;32.40;46.70;;;;;;5050832;23;20065;-96
2021/07/20 16:59:47;;;;;;;4.50;2.80;;;32.30;47.10;;;;;;4953281;28;20069;-96
2021/07/20 17:19:17;;;;;;;7.28;2.58;;;31.80;48.60;;;;;;5015670;23;20062;-96
2021/07/20 17:21:43;;;;;;;10.95;2.78;;;31.60;48.60;;;;;;4956191;28;20043;-96
2021/07/20 17:24:15;;;;;;;4.88;2.17;;;31.40;49.10;;;;;;5120615;23;20085;-96
2021/07/20 17:29:24;;;;;;;8.40;2.13;;;31.30;49.10;;;;;;5018943;23;20084;-96
2021/07/20 17:31:51;;;;;;;9.07;2.47;;;31.30;49.90;;;;;;4974590;28;20043;-94
2021/07/20 17:36:55;;;;;;;4.60;2.40;;;31.20;49.60;;;;;;5022776;23;20074;-95
2021/07/20 17:47:34;;;;;;;4.78;1.95;;;31.10;49.60;;;;;;5052665;23;20150;-96
2021/07/20 17:52:37;;;;;;;5.70;2.03;;;31.00;49.40;;;;;;5059393;23;20063;-95
2021/07/20 17:55:05;;;;;;;8.48;2.53;;;30.90;49.40;;;;;;4966347;29;20055;-95
2021/07/20 17:57:31;;;;;;;4.80;2.17;;;30.80;49.40;;;;;;4969609;28;20223;-94
2021/07/20 18:00:03;;;;;;;6.88;1.90;;;30.80;49.30;;;;;;4958472;29;20046;-94
2021/07/20 18:02:30;;;;;;;7.60;2.22;;;30.60;49.20;;;;;;4954393;29;20134;-96
2021/07/20 18:04:56;;;;;;;6.00;1.90;;;30.50;49.30;;;;;;4952807;29;20028;-96
2021/07/20 18:07:23;;;;;;;9.70;2.30;;;30.50;49.40;;;;;;4953827;29;20031;-95
2021/07/20 18:09:52;;;;;;;8.70;2.00;;;30.30;49.60;;;;;;4934063;29;20031;-96
2021/07/20 18:12:19;;;;;;;8.35;1.75;;;30.20;50.00;;;;;;4949526;29;20071;-95
2021/07/20 18:14:46;;;;;;;7.25;2.30;;;30.10;50.20;;;;;;4947876;29;20027;-96
2021/07/20 18:17:13;;;;;;;7.30;1.90;;;30.00;50.50;;;;;;4950715;29;20031;-95
2021/07/20 18:19:39;;;;;;;10.77;2.30;;;29.90;50.60;;;;;;4979128;23;20059;-96
2021/07/20 18:22:05;;;;;;;5.30;1.60;;;29.80;50.70;;;;;;4948138;29;20408;-96
2021/07/20 18:24:37;;;;;;;4.80;1.80;;;29.70;50.90;;;;;;4948401;29;20033;-96
2021/07/20 18:27:03;;;;;;;7.38;2.40;;;29.60;51.00;;;;;;4951200;29;20033;-95
2021/07/20 18:29:29;;;;;;;8.95;2.55;;;29.50;51.40;;;;;;4946124;29;20033;-94
2021/07/20 18:31:56;;;;;;;11.40;2.25;;;29.40;51.70;;;;;;4948103;29;20058;-95
2021/07/20 18:34:26;;;;;;;11.30;4.82;;;29.40;51.80;;;;;;4947013;29;20034;-95
2021/07/20 18:36:52;;;;;;;5.32;1.67;;;29.20;51.80;;;;;;4947713;29;20122;-94
2021/07/20 18:39:18;;;;;;;6.82;2.03;;;29.20;52.00;;;;;;4948132;29;20079;-94
2021/07/20 18:41:44;;;;;;;6.93;2.22;;;29.10;52.00;;;;;;4948254;29;20027;-96
2021/07/20 18:44:11;;;;;;;6.07;2.13;;;28.90;52.10;;;;;;4948620;29;20058;-94
2021/07/20 18:46:40;;;;;;;7.85;2.40;;;28.90;52.30;;;;;;4945798;29;20031;-93
2021/07/20 18:49:06;;;;;;;4.43;1.80;;;28.80;52.60;;;;;;4921401;29;20063;-91
2021/07/20 18:51:32;;;;;;;6.25;2.15;;;28.70;52.70;;;;;;4941317;29;20039;-90
2021/07/20 18:53:58;;;;;;;6.70;2.38;;;28.70;53.00;;;;;;4942524;29;20126;-91
2021/07/20 18:56:25;;;;;;;14.27;3.47;;;28.60;53.10;;;;;;4941712;29;20450;-90
2021/07/20 18:58:50;;;;;;;9.05;2.78;;;28.60;53.20;;;;;;4941028;29;20041;-90
2021/07/20 19:01:16;;;;;;;5.40;2.30;;;28.50;53.20;;;;;;4940262;29;20138;-91
2021/07/20 19:03:42;;;;;;;7.95;1.88;;;28.50;53.30;;;;;;4940501;29;20054;-91
2021/07/20 19:06:08;;;;;;;6.00;1.70;;;28.40;53.30;;;;;;4940465;29;20133;-91
2021/07/20 19:08:34;;;;;;;8.90;1.80;;;28.30;53.50;;;;;;4946338;29;20031;-90
2021/07/20 19:11:03;;;;;;;6.72;1.75;;;28.20;53.60;;;;;;4941055;29;20512;-89
2021/07/20 19:13:28;;;;;;;6.97;1.75;;;28.20;54.40;;;;;;4943139;29;20050;-89
2021/07/20 19:15:54;;;;;;;5.25;2.03;;;28.20;55.40;;;;;;4944049;29;20059;-90
2021/07/20 19:18:22;;;;;;;4.57;1.70;;;28.20;56.20;;;;;;4942994;29;20445;-90
2021/07/20 19:20:48;;;;;;;5.05;2.03;;;28.20;56.50;;;;;;4943475;29;20039;-90
2021/07/20 19:23:15;;;;;;;6.55;1.98;;;28.20;56.60;;;;;;4959510;29;20011;-90
2021/07/20 19:25:41;;;;;;;10.30;2.17;;;28.20;56.20;;;;;;4961243;29;20035;-90
2021/07/20 19:28:08;;;;;;;7.65;1.60;;;28.10;55.60;;;;;;4957606;29;20231;-91
2021/07/20 19:30:36;;;;;;;9.10;2.28;;;28.00;56.10;;;;;;4952188;29;20027;-91
2021/07/20 19:33:01;;;;;;;8.65;1.70;;;27.90;56.60;;;;;;4952274;29;20031;-91
2021/07/20 19:35:27;;;;;;;6.60;2.22;;;27.90;57.00;;;;;;4948156;29;20050;-91
2021/07/20 19:37:53;;;;;;;4.28;1.50;;;27.90;57.50;;;;;;4947752;29;20505;-90
2021/07/20 19:40:22;;;;;;;3.05;1.60;;;27.80;57.40;;;;;;4942919;29;20482;-91
2021/07/20 19:42:48;;;;;;;7.97;1.52;;;27.80;57.00;;;;;;4940821;29;20110;-91
2021/07/20 19:45:15;;;;;;;8.65;1.98;;;27.60;56.80;;;;;;4957602;29;20081;-91
2021/07/20 19:47:41;;;;;;;3.55;1.80;;;27.50;57.20;;;;;;4941145;29;20027;-91
2021/07/20 19:50:11;;;;;;;4.88;1.63;;;27.40;57.60;;;;;;4941460;29;20027;-89
2021/07/20 19:52:37;;;;;;;6.10;2.37;;;27.40;58.40;;;;;;4942876;29;20038;-90
2021/07/20 19:55:04;;;;;;;6.30;2.42;;;27.30;58.70;;;;;;4940938;29;20031;-90
2021/07/20 19:57:30;;;;;;;7.18;1.95;;;27.20;59.50;;;;;;4940793;29;20106;-89
2021/07/20 19:59:55;;;;;;;5.30;2.20;;;27.10;59.00;;;;;;4940571;29;20067;-91
2021/07/20 20:02:21;;;;;;;7.60;2.05;;;27.00;59.10;;;;;;4941140;29;20023;-92
2021/07/20 20:04:46;;;;;;;7.00;1.85;;;26.80;59.40;;;;;;4940831;29;20023;-93
2021/07/20 20:07:12;;;;;;;7.43;1.95;;;26.70;59.90;;;;;;4941089;29;20382;-92
2021/07/20 20:09:41;;;;;;;6.72;1.50;;;26.50;60.50;;;;;;4940998;29;20031;-92
2021/07/20 20:12:10;;;;;;;5.47;1.60;;;26.40;61.20;;;;;;4940628;29;20078;-92
2021/07/20 20:14:37;;;;;;;7.15;2.35;;;26.40;61.60;;;;;;4940747;29;20031;-90
2021/07/20 20:17:03;;;;;;;29.52;2.72;;;26.40;61.90;;;;;;4940428;29;20401;-90
2021/07/20 20:19:29;;;;;;;8.77;2.03;;;26.30;62.00;;;;;;4951391;29;20050;-89
2021/07/20 20:21:55;;;;;;;5.97;1.75;;;26.20;62.10;;;;;;4955489;28;20150;-91
2021/07/20 20:24:21;;;;;;;5.40;1.88;;;26.10;61.80;;;;;;4955979;29;20035;-90
2021/07/20 20:26:46;;;;;;;4.82;2.03;;;26.00;61.80;;;;;;4956595;29;20035;-89
2021/07/20 20:29:12;;;;;;;3.75;1.70;;;25.80;62.10;;;;;;4954992;29;20023;-91
2021/07/20 20:31:38;;;;;;;6.53;1.77;;;25.70;62.60;;;;;;4951054;29;20488;-92
2021/07/20 20:34:03;;;;;;;4.88;2.28;;;25.60;62.70;;;;;;4956926;29;20508;-89
2021/07/20 20:36:29;;;;;;;3.92;1.42;;;25.50;62.60;;;;;;4955349;29;20122;-89
2021/07/20 20:38:57;;;;;;;3.20;1.88;;;25.30;62.30;;;;;;4957149;29;20031;-90
2021/07/20 20:41:23;;;;;;;3.88;1.90;;;25.10;62.50;;;;;;4957267;29;20028;-89
2021/07/20 20:43:48;;;;;;;6.25;1.80;;;25.00;62.80;;;;;;4951352;29;20103;-90
2021/07/20 20:46:15;;;;;;;6.07;1.90;;;24.90;62.90;;;;;;4952186;29;20034;-90
2021/07/20 20:48:42;;;;;;;5.53;2.33;;;24.70;62.90;;;;;;4973523;29;20473;-92
2021/07/20 20:51:09;;;;;;;7.18;1.60;;;24.70;63.10;;;;;;4972827;28;20019;-91
2021/07/20 20:53:35;;;;;;;4.88;1.90;;;24.50;63.10;;;;;;4967323;28;20030;-92
2021/07/20 20:56:02;;;;;;;2.97;1.55;;;24.40;63.40;;;;;;4971235;29;20190;-91
2021/07/20 20:58:28;;;;;;;7.43;1.55;;;24.20;63.70;;;;;;4956309;29;20103;-91
2021/07/20 21:00:56;;;;;;;3.22;1.60;;;24.20;64.20;;;;;;4951603;29;20473;-93
2021/07/20 21:03:23;;;;;;;5.00;1.58;;;24.10;65.10;;;;;;4950667;29;20087;-91
2021/07/20 21:05:49;;;;;;;5.18;1.63;;;24.10;65.60;;;;;;4952169;29;20043;-92
2021/07/20 21:08:17;;;;;;;5.50;1.50;;;24.20;65.60;;;;;;4948716;29;20076;-92
2021/07/20 21:10:47;;;;;;;7.55;1.80;;;24.10;65.40;;;;;;4946874;29;20222;-92
2021/07/20 21:13:13;;;;;;;4.97;2.13;;;24.10;66.00;;;;;;4956428;29;20118;-91
2021/07/20 21:15:38;;;;;;;3.33;1.60;;;24.10;66.40;;;;;;4956144;29;20069;-92
2021/07/20 21:18:04;;;;;;;3.58;1.92;;;24.10;66.10;;;;;;4956588;28;20519;-92
2021/07/20 21:20:30;;;;;;;3.10;1.80;;;23.90;66.20;;;;;;4949897;28;20067;-91
2021/07/20 21:22:56;;;;;;;6.50;2.20;;;23.90;66.70;;;;;;4951577;28;20065;-91
2021/07/20 21:25:22;;;;;;;4.47;2.10;;;23.90;67.20;;;;;;4948213;28;20130;-93
2021/07/20 21:27:47;;;;;;;5.13;1.67;;;23.90;67.50;;;;;;4963267;28;20026;-93
2021/07/20 21:30:13;;;;;;;11.90;2.53;;;23.90;67.50;;;;;;4969182;28;20561;-93
2021/07/20 21:32:39;;;;;;;6.43;2.03;;;23.80;67.40;;;;;;4955150;28;20106;-93
2021/07/20 21:35:15;;;;;;;7.70;1.80;;;23.70;67.60;;;;;;4958249;28;20496;-94
2021/07/20 21:37:42;;;;;;;6.53;2.20;;;23.60;68.00;;;;;;4952488;28;20033;-94
2021/07/20 21:40:10;;;;;;;3.97;1.95;;;23.60;68.30;;;;;;4951248;28;20505;-93
2021/07/20 21:42:38;;;;;;;5.93;1.80;;;23.50;68.30;;;;;;4950923;28;20054;-92
2021/07/20 21:45:08;;;;;;;6.85;1.65;;;23.50;68.40;;;;;;4955629;28;20043;-92
2021/07/20 21:47:34;;;;;;;;;;;23.40;68.70;;;;;;4956238;28;20027;-93
2021/07/20 21:50:00;;;;;;;7.75;2.33;;;23.30;68.80;;;;;;4955752;28;19977;-91
2021/07/20 21:52:25;;;;;;;7.28;1.67;;;23.30;68.90;;;;;;4966044;28;20050;-94
2021/07/20 21:54:51;;;;;;;7.18;1.88;;;23.20;69.10;;;;;;4968940;28;20385;-93
2021/07/20 21:57:17;;;;;;;19.25;2.75;;;23.20;69.30;;;;;;4953493;28;20030;-91
2021/07/20 21:59:43;;;;;;;6.05;2.55;;;23.20;69.50;;;;;;4977166;28;20098;-92
2021/07/20 22:02:09;;;;;;;8.85;2.10;;;23.10;69.50;;;;;;4959471;28;20453;-91
2021/07/20 22:04:36;;;;;;;6.13;2.20;;;23.00;69.50;;;;;;4953085;28;20026;-91
2021/07/20 22:07:03;;;;;;;7.82;2.30;;;22.80;69.70;;;;;;4951618;28;20027;-91
2021/07/20 22:09:30;;;;;;;5.07;2.25;;;22.60;70.00;;;;;;4965125;28;20094;-90
2021/07/20 22:12:00;;;;;;;7.38;2.17;;;22.50;70.40;;;;;;4947628;28;20051;-91
2021/07/20 22:14:27;;;;;;;7.53;2.40;;;22.30;70.70;;;;;;4963242;28;20030;-90
2021/07/20 22:16:53;;;;;;;4.82;2.35;;;22.20;70.80;;;;;;4973008;28;20031;-89
2021/07/20 22:19:21;;;;;;;5.15;2.00;;;22.10;71.20;;;;;;4970879;28;20061;-91
2021/07/20 22:21:48;;;;;;;8.57;2.33;;;22.00;71.50;;;;;;4949810;28;20034;-91
2021/07/20 22:24:14;;;;;;;6.45;2.00;;;21.90;71.90;;;;;;4949509;28;20113;-89
2021/07/20 22:26:41;;;;;;;8.80;2.40;;;21.80;72.20;;;;;;4956484;28;20043;-90
2021/07/20 22:29:10;;;;;;;8.40;2.05;;;21.60;72.60;;;;;;4966370;28;20472;-89
2021/07/20 22:31:37;;;;;;;5.57;2.00;;;21.60;73.00;;;;;;4955544;28;20031;-89